Time;durP1;ratioP1;P1;durP2;ratioP2;P2;SDS_P1;SDS_P2;PMS_P1;PMS_P2;Temp;Humidity;BMP_temperature;BMP_pressure;BME280_temperature;BME280_humidity;BME280_pressure;Samples;Min_cycle;Max_cycle;Signal;HPM_P1;HPM_P2
2021/12/15 00:02:00;;;;;;;9.60;4.63;;;19.90;51.90;;;;;;5075244;28;20115;-91
2021/12/15 00:04:26;;;;;;;10.35;4.38;;;19.90;51.90;;;;;;5075339;28;20020;-89
2021/12/15 00:06:52;;;;;;;6.88;4.32;;;19.80;51.90;;;;;;5075315;28;20373;-92
2021/12/15 00:09:18;;;;;;;9.02;4.03;;;19.80;51.90;;;;;;5075291;28;20030;-91
2021/12/15 00:11:45;;;;;;;7.78;4.05;;;19.90;52.00;;;;;;5075447;28;20027;-90
2021/12/15 00:14:15;;;;;;;8.05;4.25;;;19.80;51.90;;;;;;5075272;28;20016;-89
2021/12/15 00:16:41;;;;;;;6.75;4.70;;;19.80;51.90;;;;;;5075069;28;20377;-91
2021/12/15 00:19:07;;;;;;;8.13;4.45;;;19.80;51.90;;;;;;5078446;28;20425;-91
2021/12/15 00:21:34;;;;;;;8.57;4.30;;;19.80;51.90;;;;;;5078659;28;20016;-91
2021/12/15 00:24:03;;;;;;;11.35;4.75;;;19.70;51.90;;;;;;5078925;28;20598;-91
2021/12/15 00:26:32;;;;;;;9.15;4.53;;;19.70;51.90;;;;;;5078835;28;20024;-90
2021/12/15 00:28:58;;;;;;;8.05;4.53;;;19.70;51.90;;;;;;5078674;28;20031;-92
2021/12/15 00:31:32;;;;;;;7.80;4.45;;;19.70;51.90;;;;;;5078277;28;20388;-91
2021/12/15 00:34:07;;;;;;;9.52;4.93;;;19.70;51.90;;;;;;5078607;28;20028;-91
2021/12/15 00:37:04;;;;;;;9.10;4.63;;;19.70;52.00;;;;;;5078743;28;20028;-91
2021/12/15 00:39:34;;;;;;;6.97;4.40;;;19.70;52.00;;;;;;5078436;28;20052;-91
2021/12/15 00:42:00;;;;;;;8.27;4.65;;;19.60;52.00;;;;;;5078051;28;20512;-91
2021/12/15 00:44:27;;;;;;;9.55;5.10;;;19.60;52.00;;;;;;5078204;28;20024;-92
2021/12/15 00:46:53;;;;;;;9.68;4.60;;;19.60;52.00;;;;;;5078209;28;20094;-90
2021/12/15 00:49:21;;;;;;;9.95;4.78;;;19.60;52.00;;;;;;5078092;28;20028;-92
2021/12/15 00:51:47;;;;;;;8.88;4.80;;;19.60;52.00;;;;;;5078157;28;20063;-92
2021/12/15 00:54:14;;;;;;;8.45;4.47;;;19.60;52.00;;;;;;5078278;28;20105;-92
2021/12/15 00:56:40;;;;;;;7.97;4.20;;;19.60;52.00;;;;;;5078190;28;20059;-92
2021/12/15 00:59:08;;;;;;;7.93;4.78;;;19.60;52.10;;;;;;5078229;28;20028;-90
2021/12/15 01:01:36;;;;;;;7.43;4.47;;;19.50;52.10;;;;;;5078084;28;20032;-90
2021/12/15 01:04:04;;;;;;;7.72;4.38;;;19.60;52.20;;;;;;5078005;28;20092;-92
2021/12/15 01:06:30;;;;;;;8.98;4.63;;;19.50;52.10;;;;;;5078088;28;20465;-90
2021/12/15 01:09:01;;;;;;;8.10;4.47;;;19.50;52.10;;;;;;5077944;28;20524;-91
2021/12/15 01:11:49;;;;;;;9.25;4.45;;;19.50;52.10;;;;;;5078118;28;20044;-91
2021/12/15 01:20:26;;;;;;;9.35;4.30;;;19.40;52.20;;;;;;5095668;28;20026;-91
2021/12/15 01:23:24;;;;;;;8.68;4.45;;;19.40;52.30;;;;;;5077580;28;20043;-91
2021/12/15 01:26:17;;;;;;;7.85;4.25;;;19.40;52.20;;;;;;5068166;28;20025;-91
2021/12/15 01:29:20;;;;;;;9.60;3.90;;;19.40;52.40;;;;;;5075896;28;20118;-91
2021/12/15 01:32:10;;;;;;;7.18;3.35;;;19.40;52.30;;;;;;5089689;28;20103;-92
2021/12/15 01:35:01;;;;;;;7.80;3.67;;;19.30;52.40;;;;;;5094958;28;20487;-91
2021/12/15 01:40:50;;;;;;;4.97;3.10;;;19.30;52.50;;;;;;5095544;28;20043;-92
2021/12/15 01:43:37;;;;;;;7.72;3.80;;;19.30;52.50;;;;;;5077478;28;20431;-91
2021/12/15 01:49:25;;;;;;;7.30;3.28;;;19.20;52.50;;;;;;5075260;28;20100;-91
2021/12/15 01:52:01;;;;;;;7.72;3.47;;;19.20;52.50;;;;;;5073802;28;20481;-91
2021/12/15 01:54:46;;;;;;;5.88;3.10;;;19.20;52.60;;;;;;5074732;28;20032;-91
2021/12/15 01:57:36;;;;;;;7.15;3.45;;;19.20;52.60;;;;;;5073756;28;20537;-92
2021/12/15 02:00:16;;;;;;;6.05;2.90;;;19.20;52.70;;;;;;5073785;28;20389;-91
2021/12/15 02:02:52;;;;;;;6.35;3.40;;;19.20;52.60;;;;;;5073433;28;20025;-91
2021/12/15 02:05:35;;;;;;;6.78;3.00;;;19.10;52.60;;;;;;5073251;28;20046;-91
2021/12/15 02:08:43;;;;;;;6.05;2.97;;;19.10;53.60;;;;;;5073019;28;20081;-91
2021/12/15 02:14:31;;;;;;;5.03;2.83;;;19.10;52.70;;;;;;5032849;28;20032;-92
2021/12/15 02:17:14;;;;;;;5.93;3.10;;;19.00;52.70;;;;;;5065909;28;20541;-91
2021/12/15 02:19:49;;;;;;;4.35;2.85;;;19.00;52.70;;;;;;5073328;28;20480;-91
2021/12/15 02:22:23;;;;;;;5.95;2.92;;;19.00;52.70;;;;;;5073532;28;20077;-91
2021/12/15 02:24:55;;;;;;;5.88;2.88;;;19.00;52.70;;;;;;5072931;28;20078;-92
2021/12/15 02:38:02;;;;;;;;;;;;;;;;;;;;;
2021/12/15 02:40:39;;;;;;;5.10;2.72;;;18.90;52.80;;;;;;5073025;28;20465;-91
2021/12/15 02:43:16;;;;;;;5.03;2.58;;;18.90;52.90;;;;;;5072804;28;20082;-91
2021/12/15 02:45:54;;;;;;;6.45;2.88;;;18.90;52.90;;;;;;5072880;28;20071;-91
2021/12/15 02:48:43;;;;;;;5.28;2.67;;;18.90;52.90;;;;;;5072713;28;20043;-92
2021/12/15 02:51:28;;;;;;;5.45;2.55;;;18.90;53.00;;;;;;5073135;28;20025;-92
2021/12/15 02:54:17;;;;;;;4.63;2.60;;;18.80;52.90;;;;;;5072760;28;20025;-91
2021/12/15 03:00:06;;;;;;;5.25;2.55;;;18.80;53.00;;;;;;5071761;28;20416;-91
2021/12/15 03:03:09;;;;;;;5.32;2.60;;;18.80;53.10;;;;;;5072640;28;20029;-91
2021/12/15 03:05:52;;;;;;;4.35;2.55;;;18.70;53.00;;;;;;5073476;28;20020;-91
2021/12/15 03:17:43;;;;;;;6.47;2.70;;;18.70;53.30;;;;;;5074105;28;20071;-91
2021/12/15 03:20:20;;;;;;;5.15;2.78;;;18.70;53.30;;;;;;5072434;28;20021;-92
2021/12/15 03:22:54;;;;;;;5.55;2.75;;;18.70;53.30;;;;;;5072664;28;20028;-91
2021/12/15 03:25:29;;;;;;;5.70;2.63;;;18.60;53.30;;;;;;5072787;28;20081;-91
2021/12/15 03:33:42;;;;;;;5.25;2.70;;;18.60;53.30;;;;;;5073855;28;20548;-91
2021/12/15 03:36:14;;;;;;;4.90;2.60;;;18.60;53.30;;;;;;5072544;28;20032;-90
2021/12/15 03:38:50;;;;;;;4.72;2.72;;;18.60;53.20;;;;;;5072265;28;20077;-91
2021/12/15 03:41:16;;;;;;;5.13;3.15;;;18.60;53.20;;;;;;5072665;28;20029;-93
2021/12/15 03:43:42;;;;;;;4.15;2.60;;;18.60;53.30;;;;;;5072073;28;20069;-91
2021/12/15 03:46:18;;;;;;;5.82;2.65;;;18.60;53.30;;;;;;5071936;28;20052;-91
2021/12/15 03:48:47;;;;;;;3.95;2.60;;;18.60;54.20;;;;;;5072353;28;20516;-91
2021/12/15 03:51:16;;;;;;;5.47;2.92;;;18.60;53.30;;;;;;5072445;28;20025;-90
2021/12/15 03:53:47;;;;;;;5.38;2.95;;;18.60;53.30;;;;;;5075965;28;20032;-92
2021/12/15 03:56:15;;;;;;;4.85;2.40;;;18.50;53.30;;;;;;5076202;28;20023;-91
2021/12/15 03:58:41;;;;;;;5.07;2.85;;;18.50;53.30;;;;;;5075751;28;20079;-91
2021/12/15 04:01:23;;;;;;;3.55;2.53;;;18.50;53.40;;;;;;5077026;28;20020;-92
2021/12/15 04:03:55;;;;;;;4.03;2.50;;;18.50;53.30;;;;;;5075496;28;20031;-92
2021/12/15 04:06:33;;;;;;;4.63;2.60;;;18.50;53.30;;;;;;5075571;28;20021;-92
2021/12/15 04:09:08;;;;;;;4.60;2.67;;;18.50;53.30;;;;;;5075868;28;20534;-91
2021/12/15 04:11:43;;;;;;;3.42;2.60;;;18.50;53.40;;;;;;5075736;28;20033;-91
2021/12/15 04:14:30;;;;;;;3.70;2.67;;;18.50;53.40;;;;;;5075764;28;20107;-92
2021/12/15 04:17:06;;;;;;;4.93;2.40;;;18.40;53.40;;;;;;5075630;28;20028;-92
2021/12/15 04:19:36;;;;;;;3.95;2.33;;;18.40;53.40;;;;;;5075833;28;20025;-91
2021/12/15 04:22:03;;;;;;;5.30;2.95;;;18.40;53.40;;;;;;5074995;28;20444;-91
2021/12/15 04:24:35;;;;;;;4.53;2.88;;;18.40;53.40;;;;;;5075718;28;20028;-92
2021/12/15 04:27:01;;;;;;;3.65;2.40;;;18.40;53.40;;;;;;5075481;28;20033;-91
2021/12/15 04:29:32;;;;;;;3.63;2.38;;;18.40;53.50;;;;;;5075318;28;20016;-92
2021/12/15 04:32:11;;;;;;;3.63;2.50;;;18.40;53.50;;;;;;5075277;28;20025;-91
2021/12/15 04:34:59;;;;;;;4.35;2.70;;;18.40;53.40;;;;;;5075255;28;20025;-91
2021/12/15 04:37:48;;;;;;;3.55;2.40;;;18.40;53.50;;;;;;5074964;28;20529;-92
2021/12/15 04:40:29;;;;;;;3.90;2.53;;;18.40;53.50;;;;;;5076279;28;20031;-92
2021/12/15 04:42:55;;;;;;;4.22;2.38;;;18.30;53.50;;;;;;5058434;28;20024;-91
2021/12/15 04:45:24;;;;;;;3.60;2.60;;;18.30;53.50;;;;;;5057960;28;20048;-91
2021/12/15 04:47:51;;;;;;;4.30;2.47;;;18.30;53.40;;;;;;5058320;28;20373;-90
2021/12/15 04:50:25;;;;;;;4.43;2.92;;;18.30;53.50;;;;;;5058470;28;20019;-91
2021/12/15 04:53:03;;;;;;;5.50;3.17;;;18.30;53.60;;;;;;5058256;28;20057;-91
2021/12/15 04:55:31;;;;;;;6.38;3.40;;;18.30;53.70;;;;;;5058263;28;20024;-92
2021/12/15 04:58:05;;;;;;;3.80;2.50;;;18.30;53.70;;;;;;5057954;28;20027;-91
2021/12/15 05:00:38;;;;;;;6.15;3.13;;;18.30;53.60;;;;;;5058203;28;20021;-91
2021/12/15 05:03:07;;;;;;;5.00;2.78;;;18.20;53.60;;;;;;5057299;28;20033;-91
2021/12/15 05:05:38;;;;;;;3.65;2.70;;;18.20;53.60;;;;;;5057567;28;20470;-91
2021/12/15 05:08:14;;;;;;;4.00;2.60;;;18.30;53.70;;;;;;5057790;28;20023;-91
2021/12/15 05:10:57;;;;;;;4.55;2.65;;;18.30;53.70;;;;;;5057874;28;20039;-91
2021/12/15 05:13:23;;;;;;;4.75;2.72;;;18.20;53.60;;;;;;5058043;28;20031;-91
2021/12/15 05:16:15;;;;;;;5.43;2.80;;;18.20;53.70;;;;;;5057715;28;20111;-92
2021/12/15 05:18:51;;;;;;;4.55;2.67;;;18.20;53.70;;;;;;5057664;28;20025;-91
2021/12/15 05:21:18;;;;;;;5.72;2.92;;;18.20;53.70;;;;;;5057856;28;20103;-91
2021/12/15 05:23:55;;;;;;;3.40;2.28;;;18.20;53.70;;;;;;5057084;28;20032;-91
2021/12/15 05:26:31;;;;;;;4.45;2.33;;;18.20;53.70;;;;;;5057660;28;20023;-90
2021/12/15 05:29:02;;;;;;;3.20;2.35;;;18.20;53.70;;;;;;5057636;28;20029;-91
2021/12/15 05:31:28;;;;;;;4.78;2.58;;;18.20;53.70;;;;;;5057337;28;20055;-91
2021/12/15 05:33:57;;;;;;;4.05;2.20;;;18.10;53.70;;;;;;5055895;28;20048;-91
2021/12/15 05:36:30;;;;;;;3.38;2.40;;;18.10;53.80;;;;;;5057603;28;20024;-91
2021/12/15 05:38:56;;;;;;;4.85;2.60;;;18.10;53.80;;;;;;5056962;28;20028;-92
2021/12/15 05:41:24;;;;;;;3.35;2.10;;;18.10;53.70;;;;;;5057434;28;20043;-91
2021/12/15 05:43:53;;;;;;;3.60;2.22;;;18.10;53.70;;;;;;5057173;28;20051;-91
2021/12/15 05:46:19;;;;;;;4.72;2.30;;;18.10;53.70;;;;;;5040904;28;20486;-91
2021/12/15 05:48:45;;;;;;;4.38;2.33;;;18.10;53.70;;;;;;5056925;28;20050;-92
2021/12/15 05:51:11;;;;;;;5.10;2.33;;;18.10;53.70;;;;;;5056721;28;20035;-91
2021/12/15 05:53:37;;;;;;;3.13;2.10;;;18.10;53.70;;;;;;5057003;28;20031;-90
2021/12/15 05:56:06;;;;;;;3.17;2.10;;;18.00;53.60;;;;;;5056979;28;20029;-91
2021/12/15 05:58:32;;;;;;;3.47;2.40;;;18.00;53.60;;;;;;5056950;28;20020;-91
2021/12/15 06:00:58;;;;;;;3.30;2.20;;;18.00;53.70;;;;;;5057018;28;20461;-92
2021/12/15 06:03:24;;;;;;;3.42;2.20;;;18.00;53.70;;;;;;5061235;28;20557;-90
2021/12/15 06:05:52;;;;;;;3.65;2.30;;;18.00;53.70;;;;;;5073312;28;20055;-91
2021/12/15 06:08:21;;;;;;;4.35;2.80;;;18.00;53.70;;;;;;5076378;28;20493;-91
2021/12/15 06:10:50;;;;;;;3.80;2.50;;;18.00;53.70;;;;;;5076671;28;20024;-92
2021/12/15 06:13:22;;;;;;;4.25;2.70;;;18.00;53.90;;;;;;5076602;28;20495;-91
2021/12/15 06:15:52;;;;;;;4.80;2.58;;;18.00;54.10;;;;;;5076779;28;20031;-91
2021/12/15 06:18:19;;;;;;;4.10;2.50;;;18.00;54.20;;;;;;5075822;28;20025;-92
2021/12/15 06:20:47;;;;;;;3.67;2.47;;;18.10;54.30;;;;;;5076436;28;20055;-92
2021/12/15 06:23:19;;;;;;;4.90;2.58;;;18.10;54.40;;;;;;5076652;28;20028;-91
2021/12/15 06:25:49;;;;;;;3.80;2.40;;;18.20;54.30;;;;;;5076659;28;20024;-92
2021/12/15 06:28:19;;;;;;;3.30;2.30;;;18.30;54.30;;;;;;5076445;28;20024;-91
2021/12/15 06:30:52;;;;;;;2.83;2.05;;;18.40;54.20;;;;;;5076215;28;20024;-90
2021/12/15 06:33:47;;;;;;;2.45;1.70;;;18.50;54.10;;;;;;5073918;28;20102;-91
2021/12/15 06:36:27;;;;;;;2.92;2.20;;;18.60;54.00;;;;;;5075655;28;20020;-91
2021/12/15 06:38:54;;;;;;;3.60;2.17;;;18.70;53.80;;;;;;5076129;28;20051;-89
2021/12/15 06:41:32;;;;;;;2.95;2.08;;;18.90;53.60;;;;;;5075810;28;20024;-90
2021/12/15 06:43:59;;;;;;;4.70;2.13;;;19.00;53.40;;;;;;5075615;28;20065;-90
2021/12/15 06:47:21;;;;;;;4.18;2.40;;;19.20;53.20;;;;;;5070308;27;20930;-92
2021/12/15 07:00:44;;;;;;;3.85;2.50;;;19.70;54.30;;;;;;5070830;28;20031;-91
2021/12/15 07:03:09;;;;;;;;;;;19.80;54.70;;;;;;5071230;28;20105;-91
2021/12/15 07:05:35;;;;;;;5.40;2.25;;;19.90;54.90;;;;;;5069402;28;20015;-92
2021/12/15 07:08:04;;;;;;;3.13;1.92;;;19.90;54.60;;;;;;5069508;28;20032;-91
2021/12/15 07:10:33;;;;;;;4.90;2.00;;;20.00;54.90;;;;;;5069298;28;20029;-91
2021/12/15 07:12:59;;;;;;;3.92;2.10;;;20.00;55.00;;;;;;5069617;28;20021;-91
2021/12/15 07:15:26;;;;;;;3.63;2.08;;;20.10;55.10;;;;;;5070125;28;20028;-92
2021/12/15 07:17:57;;;;;;;4.05;2.10;;;20.10;55.20;;;;;;5070464;28;20420;-91
2021/12/15 07:22:56;;;;;;;3.95;2.20;;;20.20;55.40;;;;;;5070840;28;20108;-91
2021/12/15 07:25:22;;;;;;;3.28;1.95;;;20.20;55.60;;;;;;5071441;28;20025;-93
2021/12/15 07:27:48;;;;;;;4.22;2.33;;;20.20;55.70;;;;;;5071599;28;20025;-90
2021/12/15 07:30:15;;;;;;;4.47;2.17;;;20.20;56.60;;;;;;5071833;28;20031;-90
2021/12/15 07:32:41;;;;;;;4.28;2.17;;;20.30;55.70;;;;;;5071850;28;20017;-89
2021/12/15 07:35:09;;;;;;;7.40;2.60;;;20.30;55.80;;;;;;5069695;28;20585;-93
2021/12/15 07:37:35;;;;;;;3.80;2.30;;;20.30;55.80;;;;;;5073163;28;20108;-89
2021/12/15 07:40:05;;;;;;;4.28;2.70;;;20.30;55.70;;;;;;5071668;28;20088;-87
2021/12/15 07:43:24;;;;;;;3.45;2.10;;;20.30;55.70;;;;;;5073557;28;20442;-92
2021/12/15 07:45:16;;;;;;;4.53;2.40;;;20.30;55.70;;;;;;5070471;28;20073;-90
2021/12/15 07:47:42;;;;;;;5.57;2.63;;;20.30;55.60;;;;;;5071131;28;20028;-94
2021/12/15 07:50:08;;;;;;;4.93;2.35;;;20.30;55.50;;;;;;5075334;28;20063;-89
2021/12/15 07:52:34;;;;;;;5.93;2.80;;;20.30;55.50;;;;;;5068347;28;20074;-90
2021/12/15 07:54:59;;;;;;;5.60;2.58;;;20.40;55.60;;;;;;5071939;28;20489;-91
2021/12/15 07:57:28;;;;;;;5.35;2.65;;;20.30;55.40;;;;;;5060137;28;20036;-93
2021/12/15 07:59:56;;;;;;;4.22;2.60;;;20.30;55.40;;;;;;5055492;28;20390;-91
2021/12/15 08:02:22;;;;;;;5.53;2.50;;;20.40;55.60;;;;;;5054818;28;20428;-88
2021/12/15 08:04:47;;;;;;;5.47;2.40;;;20.30;55.60;;;;;;5053872;28;20040;-92
2021/12/15 08:07:13;;;;;;;4.43;2.50;;;20.30;55.50;;;;;;5055851;28;20032;-87
2021/12/15 08:09:38;;;;;;;4.25;2.40;;;20.30;55.50;;;;;;5055823;28;20529;-87
2021/12/15 08:12:04;;;;;;;4.97;2.58;;;20.30;55.60;;;;;;5054623;28;20082;-91
2021/12/15 08:14:30;;;;;;;5.22;2.50;;;20.30;55.50;;;;;;5055958;28;20067;-91
2021/12/15 08:17:02;;;;;;;3.83;2.65;;;20.30;55.50;;;;;;5048066;28;20024;-91
2021/12/15 08:19:30;;;;;;;8.00;2.85;;;20.30;55.50;;;;;;5043124;28;20029;-90
2021/12/15 08:21:59;;;;;;;5.97;2.78;;;20.30;55.50;;;;;;5054830;28;20021;-93
2021/12/15 08:24:24;;;;;;;4.55;2.50;;;20.30;55.50;;;;;;5054351;28;20029;-88
2021/12/15 08:26:50;;;;;;;7.10;2.58;;;20.30;55.50;;;;;;5048504;28;20434;-91
2021/12/15 08:29:16;;;;;;;7.72;2.53;;;20.30;55.50;;;;;;5054161;28;20078;-90
2021/12/15 08:32:01;;;;;;;5.80;2.67;;;20.30;55.50;;;;;;5071419;28;20025;-91
2021/12/15 08:34:30;;;;;;;6.53;2.80;;;20.30;55.60;;;;;;5053837;28;20033;-91
2021/12/15 08:36:55;;;;;;;5.88;2.47;;;20.30;55.70;;;;;;5054714;28;20017;-92
2021/12/15 08:39:21;;;;;;;5.15;2.60;;;20.30;55.70;;;;;;5054176;28;20501;-90
2021/12/15 08:41:47;;;;;;;3.85;2.50;;;20.30;55.60;;;;;;5054312;28;20021;-90
2021/12/15 08:44:14;;;;;;;4.32;2.38;;;20.30;55.70;;;;;;5055376;28;20029;-91
2021/12/15 08:46:46;;;;;;;4.95;2.75;;;20.30;55.70;;;;;;5054323;28;20048;-91
2021/12/15 08:49:17;;;;;;;7.47;2.45;;;20.20;55.60;;;;;;5054147;28;20115;-90
2021/12/15 08:51:52;;;;;;;5.65;2.47;;;20.20;55.60;;;;;;5037673;28;20087;-92
2021/12/15 08:54:20;;;;;;;3.20;2.28;;;20.20;55.60;;;;;;5053698;28;20021;-91
2021/12/15 08:57:05;;;;;;;5.55;2.42;;;20.20;55.60;;;;;;5053755;28;20025;-90
2021/12/15 08:59:57;;;;;;;5.28;2.90;;;20.20;55.60;;;;;;5054535;28;20098;-91
2021/12/15 09:02:23;;;;;;;5.32;2.70;;;20.20;55.60;;;;;;5054432;28;20033;-91
2021/12/15 09:04:48;;;;;;;4.45;2.42;;;20.20;55.60;;;;;;5053797;28;20478;-90
2021/12/15 09:07:14;;;;;;;4.20;2.60;;;20.20;55.70;;;;;;5053966;28;20024;-90
2021/12/15 09:09:55;;;;;;;4.25;2.08;;;20.20;55.70;;;;;;5052703;28;20039;-91
2021/12/15 09:12:38;;;;;;;4.65;2.10;;;20.20;55.60;;;;;;5053738;28;20482;-91
2021/12/15 09:15:11;;;;;;;5.10;2.30;;;20.20;55.70;;;;;;5054364;28;20037;-90
2021/12/15 09:17:40;;;;;;;4.22;2.03;;;20.20;56.70;;;;;;5054098;28;20024;-91
2021/12/15 09:20:32;;;;;;;4.18;2.13;;;20.20;55.90;;;;;;5054415;28;20116;-92
2021/12/15 09:23:01;;;;;;;3.90;2.40;;;20.20;55.70;;;;;;5053119;28;20410;-91
2021/12/15 09:25:27;;;;;;;4.43;2.15;;;20.20;55.70;;;;;;5053292;28;20623;-90
2021/12/15 09:28:06;;;;;;;2.92;1.73;;;20.20;55.70;;;;;;5054618;28;20025;-91
2021/12/15 09:30:32;;;;;;;3.38;1.85;;;20.20;55.80;;;;;;5053547;28;20123;-87
2021/12/15 09:32:59;;;;;;;4.30;2.47;;;20.20;55.70;;;;;;5054016;28;20005;-89
2021/12/15 09:35:31;;;;;;;3.22;1.77;;;20.20;55.70;;;;;;5053763;28;20017;-89
2021/12/15 09:37:57;;;;;;;6.75;1.88;;;20.20;55.70;;;;;;5054183;28;20023;-88
2021/12/15 09:40:23;;;;;;;4.70;2.08;;;20.20;55.70;;;;;;5054038;28;20025;-89
2021/12/15 09:42:50;;;;;;;5.75;2.10;;;20.20;55.70;;;;;;5053973;28;20047;-88
2021/12/15 10:04:30;;;;;;;3.88;1.70;;;20.20;55.70;;;;;;5053931;28;20052;-91
2021/12/15 10:17:26;;;;;;;5.10;1.70;;;20.20;55.80;;;;;;5053961;28;20052;-86
2021/12/15 10:18:28;;;;;;;8.25;1.90;;;20.20;55.90;;;;;;5057443;28;20036;-89
2021/12/15 10:20:54;;;;;;;7.88;1.92;;;20.20;56.10;;;;;;5046668;28;20017;-89
2021/12/15 10:23:24;;;;;;;6.43;1.90;;;20.20;55.90;;;;;;5050207;28;20516;-89
2021/12/15 10:25:54;;;;;;;7.32;1.92;;;20.20;56.00;;;;;;5051635;28;20163;-90
2021/12/15 10:28:26;;;;;;;7.20;2.15;;;20.20;56.10;;;;;;5050426;28;20017;-88
2021/12/15 10:30:59;;;;;;;11.38;2.30;;;20.20;56.10;;;;;;5032249;28;20106;-88
2021/12/15 10:33:35;;;;;;;8.02;1.92;;;20.20;56.00;;;;;;5071504;28;20035;-87
2021/12/15 10:36:03;;;;;;;11.52;2.10;;;20.20;55.90;;;;;;5073038;28;20056;-87
2021/12/15 10:38:43;;;;;;;5.57;2.00;;;20.20;55.80;;;;;;5073018;28;20086;-89
2021/12/15 10:41:23;;;;;;;6.85;1.92;;;20.20;55.80;;;;;;5071673;28;20021;-88
2021/12/15 10:43:56;;;;;;;5.28;1.90;;;20.30;55.80;;;;;;5071801;28;20035;-90
2021/12/15 10:46:23;;;;;;;6.40;1.80;;;20.20;55.70;;;;;;5072951;28;20041;-86
2021/12/15 10:49:04;;;;;;;6.82;1.88;;;20.20;55.70;;;;;;5073163;28;20028;-89
2021/12/15 10:51:48;;;;;;;8.23;1.95;;;20.20;55.60;;;;;;5073369;28;20029;-87
2021/12/15 10:54:24;;;;;;;7.82;2.08;;;20.30;55.70;;;;;;5073249;28;20103;-88
2021/12/15 10:56:52;;;;;;;6.75;2.00;;;20.30;55.60;;;;;;5073527;28;20032;-87
2021/12/15 10:59:18;;;;;;;9.95;2.10;;;20.30;55.60;;;;;;5072170;28;20028;-88
2021/12/15 11:01:52;;;;;;;6.75;2.00;;;20.30;55.50;;;;;;5073264;28;20436;-89
2021/12/15 11:04:39;;;;;;;7.55;2.20;;;20.30;55.50;;;;;;5073013;28;20021;-88
2021/12/15 11:07:26;;;;;;;5.97;1.95;;;20.30;55.50;;;;;;5073309;28;20033;-90
2021/12/15 11:09:57;;;;;;;9.98;2.15;;;20.30;55.40;;;;;;5072034;28;20024;-87
2021/12/15 11:12:50;;;;;;;9.00;1.98;;;20.30;55.30;;;;;;5065092;28;20028;-89
2021/12/15 11:15:18;;;;;;;6.13;1.70;;;20.30;55.20;;;;;;5052560;28;20060;-87
2021/12/15 11:17:45;;;;;;;4.50;1.58;;;20.30;55.30;;;;;;5052597;28;20363;-88
2021/12/15 11:20:16;;;;;;;4.32;1.80;;;20.30;55.20;;;;;;5052817;28;20355;-88
2021/12/15 11:22:52;;;;;;;7.13;1.90;;;20.30;55.10;;;;;;5053234;28;20037;-88
2021/12/15 11:25:27;;;;;;;6.93;1.88;;;20.30;55.10;;;;;;5051654;28;20436;-88
2021/12/15 11:28:00;;;;;;;7.05;1.60;;;20.30;55.00;;;;;;5051570;28;20036;-88
2021/12/15 11:30:34;;;;;;;6.47;1.60;;;20.30;54.90;;;;;;5051889;28;20420;-88
2021/12/15 11:33:10;;;;;;;5.20;1.38;;;20.30;55.00;;;;;;5055594;28;20021;-87
2021/12/15 11:35:43;;;;;;;6.57;1.65;;;20.40;55.00;;;;;;5055731;28;20025;-87
2021/12/15 11:38:29;;;;;;;4.35;1.50;;;20.40;55.00;;;;;;5055197;28;20017;-88
2021/12/15 11:40:58;;;;;;;5.00;1.98;;;20.40;55.90;;;;;;5056226;28;20558;-88
2021/12/15 11:43:57;;;;;;;6.88;1.75;;;20.40;54.90;;;;;;5056643;28;20021;-88
2021/12/15 11:46:31;;;;;;;4.97;1.40;;;20.40;54.90;;;;;;5056213;28;20056;-91
2021/12/15 11:49:07;;;;;;;5.93;1.38;;;20.40;55.00;;;;;;5055135;28;20347;-88
2021/12/15 11:51:43;;;;;;;3.25;1.48;;;20.40;54.90;;;;;;5055412;28;20024;-89
2021/12/15 11:54:28;;;;;;;4.63;1.50;;;20.40;54.90;;;;;;5055383;28;20421;-91
2021/12/15 11:57:00;;;;;;;6.18;1.38;;;20.40;54.90;;;;;;5055213;28;20115;-91
2021/12/15 11:59:42;;;;;;;7.47;1.40;;;20.40;55.00;;;;;;5055233;28;20043;-90
2021/12/15 12:02:29;;;;;;;3.83;1.48;;;20.40;54.90;;;;;;5055132;28;20032;-87
2021/12/15 12:04:58;;;;;;;5.95;1.10;;;20.40;55.00;;;;;;5056309;28;20035;-91
2021/12/15 12:07:41;;;;;;;4.63;1.10;;;20.40;55.00;;;;;;5055121;28;20561;-90
2021/12/15 12:10:17;;;;;;;4.60;1.35;;;20.40;55.00;;;;;;5056144;28;20100;-89
2021/12/15 12:12:53;;;;;;;4.68;1.23;;;20.40;55.00;;;;;;5054929;28;20032;-88
2021/12/15 12:15:23;;;;;;;5.70;1.85;;;20.40;55.00;;;;;;5056160;28;20382;-88
2021/12/15 12:17:51;;;;;;;3.15;1.20;;;20.40;55.00;;;;;;5055653;28;20079;-89
2021/12/15 12:20:20;;;;;;;5.43;1.23;;;20.40;56.00;;;;;;5055991;28;20032;-89
2021/12/15 12:22:48;;;;;;;3.75;0.98;;;20.50;55.10;;;;;;5055669;28;20500;-87
2021/12/15 12:25:37;;;;;;;1.27;0.77;;;20.50;55.00;;;;;;5054378;28;20466;-89
2021/12/15 12:28:06;;;;;;;3.78;1.13;;;20.50;54.90;;;;;;5055827;28;20017;-91
2021/12/15 12:30:38;;;;;;;4.65;1.10;;;20.50;55.00;;;;;;5056122;28;20028;-90
2021/12/15 12:33:08;;;;;;;4.85;1.00;;;20.50;55.00;;;;;;5054118;28;20496;-88
2021/12/15 12:35:42;;;;;;;4.60;1.10;;;20.50;55.10;;;;;;5054438;28;20029;-90
2021/12/15 12:38:16;;;;;;;4.90;0.98;;;20.50;55.00;;;;;;5055886;28;20028;-89
2021/12/15 12:41:01;;;;;;;3.38;1.23;;;20.50;54.90;;;;;;5055310;28;20506;-90
2021/12/15 12:43:31;;;;;;;4.82;1.00;;;20.50;54.90;;;;;;5054412;28;20029;-89
2021/12/15 12:45:56;;;;;;;4.35;1.33;;;20.50;54.80;;;;;;5054185;28;20067;-90
2021/12/15 12:59:48;;;;;;;4.90;1.48;;;20.50;54.60;;;;;;5051807;28;20460;-90
2021/12/15 13:02:37;;;;;;;4.97;1.10;;;20.50;54.60;;;;;;5050350;28;20120;-92
2021/12/15 13:05:05;;;;;;;5.18;1.00;;;20.50;54.50;;;;;;5051978;28;20029;-88
2021/12/15 13:07:53;;;;;;;3.05;0.90;;;20.50;54.50;;;;;;5033969;28;20031;-89
2021/12/15 13:10:22;;;;;;;3.47;0.90;;;20.50;54.30;;;;;;5034951;28;20010;-89
2021/12/15 13:13:07;;;;;;;6.05;1.05;;;20.50;54.40;;;;;;5033575;28;20430;-89
2021/12/15 13:15:34;;;;;;;5.45;1.20;;;20.50;54.40;;;;;;5035046;28;20025;-89
2021/12/15 13:18:11;;;;;;;3.40;1.00;;;20.50;54.30;;;;;;5033475;28;20024;-89
2021/12/15 13:20:36;;;;;;;5.28;1.23;;;20.50;54.30;;;;;;5034883;28;20030;-89
2021/12/15 13:23:09;;;;;;;2.55;0.90;;;20.50;54.30;;;;;;5033484;28;20025;-88
2021/12/15 13:28:48;;;;;;;3.25;0.80;;;20.50;54.10;;;;;;5034897;28;20565;-89
2021/12/15 13:31:24;;;;;;;2.55;0.93;;;20.50;54.20;;;;;;5033313;28;20029;-89
2021/12/15 13:34:00;;;;;;;3.88;1.08;;;20.50;54.20;;;;;;5033317;28;20128;-89
2021/12/15 13:36:31;;;;;;;2.33;1.05;;;20.50;54.10;;;;;;5034489;28;20025;-89
2021/12/15 13:39:03;;;;;;;2.65;0.90;;;20.50;54.00;;;;;;5034338;28;20570;-89
2021/12/15 13:41:40;;;;;;;2.42;0.90;;;20.50;54.10;;;;;;5034383;28;20029;-89
2021/12/15 13:44:35;;;;;;;2.28;0.95;;;20.50;54.00;;;;;;5034410;28;20021;-89
2021/12/15 13:47:09;;;;;;;2.35;1.02;;;20.50;54.00;;;;;;5034284;28;20111;-89
2021/12/15 13:49:43;;;;;;;1.25;0.80;;;20.50;54.00;;;;;;5034258;28;20471;-89
2021/12/15 13:52:17;;;;;;;3.75;1.00;;;20.50;54.00;;;;;;5034276;28;20168;-89
2021/12/15 13:54:46;;;;;;;2.58;0.93;;;20.50;53.90;;;;;;5049199;28;20040;-89
2021/12/15 13:57:11;;;;;;;3.42;0.98;;;20.50;53.90;;;;;;5049385;28;20025;-89
2021/12/15 14:00:01;;;;;;;1.88;0.90;;;20.50;53.90;;;;;;5034108;28;20496;-89
2021/12/15 14:02:36;;;;;;;2.20;0.90;;;20.50;53.80;;;;;;5049645;28;20120;-89
2021/12/15 14:05:13;;;;;;;1.45;0.70;;;20.50;53.80;;;;;;5033689;28;20108;-89
2021/12/15 14:07:46;;;;;;;4.38;0.80;;;20.50;53.80;;;;;;5049309;28;20049;-89
2021/12/15 14:10:12;;;;;;;;;;;20.50;53.80;;;;;;5033094;28;20383;-90
2021/12/15 14:12:47;;;;;;;2.45;0.75;;;20.50;53.90;;;;;;5033637;28;19912;-88
2021/12/15 14:15:24;;;;;;;2.45;0.63;;;20.50;53.90;;;;;;5033763;28;20036;-89
2021/12/15 14:18:02;;;;;;;1.17;0.50;;;20.50;53.90;;;;;;5033760;28;20025;-88
2021/12/15 14:20:30;;;;;;;5.00;0.70;;;20.50;53.80;;;;;;5033871;28;20100;-89
2021/12/15 14:23:03;;;;;;;3.60;0.50;;;20.50;53.90;;;;;;5033719;28;20160;-88
2021/12/15 14:25:33;;;;;;;2.75;0.70;;;20.60;53.90;;;;;;5065247;28;20437;-86
2021/12/15 14:28:18;;;;;;;3.22;0.65;;;20.60;54.00;;;;;;5033763;28;20545;-92
2021/12/15 14:30:52;;;;;;;3.85;1.00;;;20.70;53.90;;;;;;5033816;28;20026;-89
2021/12/15 14:33:22;;;;;;;6.72;0.80;;;20.70;53.90;;;;;;5048810;28;20120;-88
2021/12/15 14:35:48;;;;;;;2.80;0.60;;;20.80;53.90;;;;;;5033733;28;20057;-85
2021/12/15 14:38:14;;;;;;;5.88;0.80;;;20.80;53.80;;;;;;5065349;28;20030;-89
2021/12/15 14:40:40;;;;;;;3.38;0.60;;;20.80;53.80;;;;;;5033479;28;20471;-88
2021/12/15 14:43:06;;;;;;;3.92;0.70;;;20.90;53.70;;;;;;5033794;28;20045;-90
2021/12/15 14:45:32;;;;;;;3.05;0.77;;;20.90;53.90;;;;;;5048708;28;20049;-92
2021/12/15 14:47:59;;;;;;;5.63;0.60;;;21.00;53.60;;;;;;5065725;28;20539;-89
2021/12/15 14:50:25;;;;;;;4.70;1.00;;;21.00;53.60;;;;;;5032200;28;20105;-90
2021/12/15 14:52:54;;;;;;;2.83;0.77;;;21.10;53.60;;;;;;5065287;28;20061;-88
2021/12/15 14:55:30;;;;;;;5.18;0.70;;;21.10;53.40;;;;;;5033714;28;20025;-91
2021/12/15 14:57:55;;;;;;;2.92;0.75;;;21.20;53.40;;;;;;5032256;28;20025;-86
2021/12/15 15:00:35;;;;;;;5.60;0.70;;;21.20;53.30;;;;;;5033445;28;20383;-86